Flight Track Log - Related Links

Times and Time Zones

All times are in EDT time to prevent confusion due to time zone crossing. See the FLG4208 flight status page for this flight to view local times or setup timezone preferences in your user account.

Time Position Orientation Groundspeed Altitude Reporting Facility
EDT Latitude Longitude Course Direction KTS MPH feet Rate Location/Type
Tue 10:55:52 PM 42.2314 -83.3342 North 149 171 1,300  Level Cleveland Center
Tue 10:56:58 PM 42.2742 -83.2911 37° Northeast 197 227 3,700 1,920 Climbing Cleveland Center
Tue 10:57:32 PM 42.3039 -83.2589 39° Northeast 239 275 4,500 1,851 Climbing Cleveland Center
Tue 10:58:32 PM 42.3608 -83.2331 19° North 263 303 6,600 2,350 Climbing Cleveland Center
Tue 10:59:32 PM 42.4467 -83.2142 North 275 316 9,200 1,950 Climbing Cleveland Center
Tue 11:00:32 PM 42.5283 -83.2033 North 275 316 10,500 900 Climbing Cleveland Center
Tue 11:01:00 PM 42.8557 -83.1333 North  Level FlightAware Approximate
Tue 11:01:32 PM 42.6247 -83.1850 North 313 360 11,000  Level Cleveland Center
Tue 11:02:32 PM 42.7250 -83.1664 North 366 421 12,000 1,050 Climbing Cleveland Center
Tue 11:03:32 PM 42.8339 -83.1483 North 379 436 13,100 1,050 Climbing Cleveland Center
Tue 11:04:32 PM 42.9431 -83.1189 11° North 393 452 14,100 1,050 Climbing Cleveland Center
Tue 11:05:32 PM 43.0542 -83.0806 14° North 393 452 15,200 1,050 Climbing Cleveland Center
Tue 11:06:32 PM 43.1575 -83.0222 22° Northeast 393 452 16,200 1,000 Climbing Cleveland Center
Tue 11:07:32 PM 43.2106 -82.8792 63° Northeast 377 434 17,200 1,074 Climbing Cleveland Center
Tue 11:08:07 PM 43.2167 -82.7667 86° East 430 495 17,900 1,137 Climbing Toronto Center
Tue 11:09:07 PM 43.2667 -82.5833 69° East 440 506 19,000 1,000 Climbing Toronto Center
Tue 11:10:07 PM 43.2833 -82.4333 81° East 440 506 19,900 950 Climbing Toronto Center
Tue 11:11:07 PM 43.3000 -82.2667 82° East 440 506 20,900 1,050 Climbing Toronto Center
Tue 11:12:07 PM 43.3167 -82.1000 82° East 440 506 22,000 1,050 Climbing Toronto Center
Tue 11:13:07 PM 43.3500 -81.9500 73° East 440 506 23,000 850 Climbing Toronto Center
Tue 11:14:07 PM 43.3833 -81.7667 76° East 440 506 23,700 650 Climbing Toronto Center
Tue 11:15:07 PM 43.4000 -81.6000 82° East 450 518 24,300 600 Climbing Toronto Center
Tue 11:16:07 PM 43.4167 -81.4167 83° East 450 518 24,900 600 Climbing Toronto Center
Tue 11:17:07 PM 43.4333 -81.2667 81° East 460 529 25,500 600 Climbing Toronto Center
Tue 11:18:07 PM 43.4667 -81.0833 76° East 460 529 26,100 600 Climbing Toronto Center
Tue 11:19:07 PM 43.4833 -80.9167 82° East 460 529 26,700 600 Climbing Toronto Center
Tue 11:20:07 PM 43.5333 -80.7333 69° East 460 529 27,300 600 Climbing Toronto Center
Tue 11:21:07 PM 43.5500 -80.5833 81° East 470 541 27,900 600 Climbing Toronto Center
Tue 11:22:07 PM 43.5833 -80.4000 76° East 460 529 28,500 600 Climbing Toronto Center
Tue 11:23:07 PM 43.6000 -80.2333 82° East 460 529 29,100 650 Climbing Toronto Center
Tue 11:24:07 PM 43.6333 -80.0500 76° East 460 529 29,800 600 Climbing Toronto Center
Tue 11:25:07 PM 43.6500 -79.8833 82° East 460 529 30,300 500 Climbing Toronto Center
Tue 11:26:07 PM 43.6833 -79.7000 76° East 460 529 30,800 350 Climbing Toronto Center
Tue 11:27:07 PM 43.7167 -79.5167 76° East 470 541 31,000 100 Climbing Toronto Center
Tue 11:28:07 PM 43.7333 -79.3500 82° East 470 541 31,000  Level Toronto Center
Tue 11:29:07 PM 43.7667 -79.1667 76° East 480 552 31,000  Level Toronto Center
Tue 11:30:07 PM 43.7833 -78.9833 83° East 490 564 31,000  Level Toronto Center
Tue 11:31:07 PM 43.8167 -78.8000 76° East 490 564 31,000  Level Toronto Center
Tue 11:32:07 PM 43.8500 -78.6167 76° East 490 564 31,000  Level Toronto Center
Tue 11:33:07 PM 43.8500 -78.4333 90° East 490 564 31,000  Level Toronto Center
Tue 11:34:07 PM 43.8833 -78.2500 76° East 490 564 31,000  Level Toronto Center
Tue 11:35:07 PM 43.9167 -78.0667 76° East 490 564 31,000  Level Toronto Center
Tue 11:36:07 PM 43.9333 -77.8667 83° East 490 564 31,000  Level Toronto Center
Tue 11:37:07 PM 43.9667 -77.6833 76° East 490 564 31,000  Level Toronto Center
Tue 11:38:07 PM 43.9833 -77.5000 83° East 490 564 31,000  Level Toronto Center
Tue 11:39:07 PM 44.0000 -77.3167 83° East 490 564 31,000  Level Toronto Center
Tue 11:40:07 PM 44.0333 -77.1333 76° East 490 564 31,000  Level Toronto Center
Tue 11:41:07 PM 44.0500 -76.9333 83° East 490 564 31,000  Level Toronto Center
Tue 11:42:07 PM 44.0833 -76.7500 76° East 490 564 31,000  Level Toronto Center
Tue 11:43:07 PM 44.1000 -76.5667 83° East 490 564 31,000  Level Toronto Center
Tue 11:44:07 PM 44.1167 -76.3833 83° East 490 564 31,000  Level Toronto Center
Tue 11:45:07 PM 44.1500 -76.2167 74° East 480 552 31,000  Level Toronto Center
Tue 11:45:45 PM 44.1714 -76.1136 74° East 485 558 31,000  Level Boston Center
Tue 11:46:45 PM 44.1939 -75.9267 80° East 479 551 31,000  Level Boston Center
Tue 11:47:45 PM 44.2139 -75.7453 81° East 479 551 31,000 -45 Level Boston Center
Tue 11:48:57 PM 44.2389 -75.5206 81° East 479 551 30,900  Descending Boston Center
Tue 11:49:57 PM 44.2556 -75.3561 82° East 479 551 31,000 -100 Climbing Boston Center
Tue 11:50:57 PM 44.2769 -75.1717 81° East 479 551 30,700 -1,500 Descending Boston Center
Tue 11:51:57 PM 44.2936 -74.9808 83° East 484 557 28,000 -2,650 Descending Boston Center
Tue 11:52:57 PM 44.3142 -74.7989 81° East 484 557 25,400 -2,550 Descending Boston Center
Tue 11:53:57 PM 44.3300 -74.6314 82° East 460 529 22,900 -2,400 Descending Boston Center
Tue 11:54:57 PM 44.3456 -74.4692 82° East 438 504 20,600 -2,300 Descending Boston Center
Tue 11:55:57 PM 44.3628 -74.3189 81° East 412 474 18,300 -2,450 Descending Boston Center
Tue 11:56:57 PM 44.3756 -74.1683 83° East 395 455 15,700 -2,400 Descending Boston Center
Tue 11:57:57 PM 44.3878 -74.0292 83° East 371 427 13,500 -2,250 Descending Boston Center
Tue 11:58:57 PM 44.4022 -73.8931 82° East 366 421 11,200 -1,750 Descending Boston Center
Tue 11:59:57 PM 44.4142 -73.7653 83° East 351 404 10,000 -1,450 Descending Boston Center
Wed 12:00:57 AM 44.4342 -73.6408 77° East 322 371 8,300 -1,600 Descending Boston Center
Wed 12:01:57 AM 44.4767 -73.5661 51° Northeast 294 338 6,800 -1,950 Descending Boston Center
Wed 12:02:57 AM 44.5278 -73.4622 55° Northeast 283 326 4,400 -2,150 Descending Boston Center
Wed 12:03:57 AM 44.5658 -73.3783 57° Northeast 262 302 2,500 -1,200 Descending Boston Center
Wed 12:04:57 AM 44.5603 -73.2967 95° East 222 255 2,000 -400 Descending Boston Center
Wed 12:05:57 AM 44.5253 -73.2408 131° Southeast 185 213 1,700 -550 Descending Boston Center
Wed 12:06:57 AM 44.4964 -73.1939 131° Southeast 167 192 900 -800 Descending Boston Center

Login

Don't have an account? Register now (free) for customized features, flight alerts, and more!